Time;durP1;ratioP1;P1;durP2;ratioP2;P2;SDS_P1;SDS_P2;PMS_P1;PMS_P2;Temp;Humidity;BMP_temperature;BMP_pressure;BME280_temperature;BME280_humidity;BME280_pressure;Samples;Min_cycle;Max_cycle;Signal;HPM_P1;HPM_P2
2023/08/20 00:00:06;;;;;;;12.43;9.13;;;24.10;17.20;;;;;;5030702;28;20466;-62
2023/08/20 00:02:37;;;;;;;10.77;8.70;;;24.10;17.30;;;;;;5026189;28;20470;-63
2023/08/20 00:05:04;;;;;;;13.60;8.57;;;24.10;17.40;;;;;;5025839;28;20915;-63
2023/08/20 00:07:32;;;;;;;12.80;9.53;;;24.00;17.40;;;;;;5021095;28;20491;-63
2023/08/20 00:09:59;;;;;;;11.70;8.87;;;24.00;17.20;;;;;;5022614;28;20470;-62
2023/08/20 00:12:27;;;;;;;11.50;9.37;;;24.00;17.40;;;;;;5024147;28;20459;-63
2023/08/20 00:14:58;;;;;;;11.90;9.50;;;24.00;17.30;;;;;;5028182;28;20485;-64
2023/08/20 00:17:26;;;;;;;12.80;10.17;;;24.00;17.20;;;;;;5023912;28;20467;-63
2023/08/20 00:19:54;;;;;;;15.30;10.60;;;24.00;17.40;;;;;;5026991;28;20459;-63
2023/08/20 00:22:23;;;;;;;18.40;14.50;;;24.00;17.40;;;;;;5024054;28;20462;-63
2023/08/20 00:24:50;;;;;;;14.53;12.27;;;24.00;17.40;;;;;;5023607;28;20513;-63
2023/08/20 00:27:17;;;;;;;13.80;9.70;;;24.00;17.30;;;;;;5025753;28;20541;-63
2023/08/20 00:29:45;;;;;;;12.17;9.30;;;23.90;17.60;;;;;;5021364;28;20543;-63
2023/08/20 00:32:12;;;;;;;11.47;9.33;;;23.90;17.80;;;;;;5019332;28;20482;-62
2023/08/20 00:34:40;;;;;;;13.13;9.93;;;23.90;17.90;;;;;;5023300;28;20962;-63
2023/08/20 00:37:06;;;;;;;12.17;8.90;;;23.90;18.10;;;;;;5019978;28;20529;-63
2023/08/20 00:39:33;;;;;;;11.00;9.80;;;23.80;17.90;;;;;;5022359;28;20467;-63
2023/08/20 00:42:00;;;;;;;11.83;8.90;;;23.80;17.80;;;;;;5025724;28;20486;-63
2023/08/20 00:44:26;;;;;;;10.63;9.40;;;23.80;17.90;;;;;;5021458;28;20458;-63
2023/08/20 00:46:54;;;;;;;13.10;9.47;;;23.80;17.90;;;;;;5024690;28;20748;-64
2023/08/20 00:49:21;;;;;;;12.03;10.10;;;23.80;18.20;;;;;;5025527;28;21215;-64
2023/08/20 00:51:49;;;;;;;11.17;9.90;;;23.80;18.10;;;;;;5023423;28;20462;-63
2023/08/20 00:54:16;;;;;;;11.47;9.87;;;23.70;18.20;;;;;;5022049;28;20470;-63
2023/08/20 00:56:43;;;;;;;14.37;10.83;;;23.80;18.30;;;;;;5020385;28;20753;-62
2023/08/20 00:59:10;;;;;;;11.70;9.60;;;23.70;18.50;;;;;;5026479;28;20494;-63
2023/08/20 01:01:37;;;;;;;11.20;9.10;;;23.70;18.60;;;;;;5022366;28;20482;-63
2023/08/20 01:04:06;;;;;;;13.40;10.30;;;23.60;18.70;;;;;;5022696;28;20470;-62
2023/08/20 01:06:40;;;;;;;12.47;10.43;;;23.60;18.70;;;;;;5022827;28;20495;-64
2023/08/20 01:09:18;;;;;;;16.93;15.20;;;23.60;18.90;;;;;;5021147;28;20514;-62
2023/08/20 01:11:52;;;;;;;12.93;11.17;;;23.60;18.70;;;;;;5021432;28;20463;-63
2023/08/20 01:14:19;;;;;;;14.13;10.43;;;23.60;18.70;;;;;;5024602;28;20466;-63
2023/08/20 01:16:49;;;;;;;11.23;9.57;;;23.50;18.80;;;;;;5022414;28;20466;-63
2023/08/20 01:19:23;;;;;;;13.20;9.90;;;23.50;19.20;;;;;;5021276;28;20497;-63
2023/08/20 01:22:05;;;;;;;11.67;9.60;;;23.40;19.30;;;;;;5024282;28;20474;-63
2023/08/20 01:24:45;;;;;;;12.80;10.77;;;23.40;19.60;;;;;;5024469;28;20569;-63
2023/08/20 01:27:29;;;;;;;13.97;10.23;;;23.40;19.50;;;;;;5022477;28;20459;-64
2023/08/20 01:29:57;;;;;;;12.50;11.30;;;23.30;20.00;;;;;;5021229;28;20474;-65
2023/08/20 01:32:25;;;;;;;13.67;10.13;;;23.30;20.00;;;;;;5020166;28;20475;-65
2023/08/20 01:34:53;;;;;;;14.40;9.70;;;23.30;20.00;;;;;;5022010;28;20570;-62
2023/08/20 01:37:20;;;;;;;11.93;9.87;;;23.40;19.90;;;;;;5023131;28;20467;-63
2023/08/20 01:39:47;;;;;;;15.43;10.67;;;23.40;20.00;;;;;;5017650;28;20470;-63
2023/08/20 01:42:14;;;;;;;14.60;11.47;;;23.40;20.10;;;;;;5025604;28;20469;-63
2023/08/20 01:44:40;;;;;;;14.27;12.30;;;23.40;20.20;;;;;;5024669;28;20460;-63
2023/08/20 01:47:08;;;;;;;12.83;11.53;;;23.40;20.40;;;;;;5025665;28;20503;-63
2023/08/20 01:49:35;;;;;;;13.90;10.53;;;23.30;20.50;;;;;;5021611;28;20479;-63
2023/08/20 01:52:02;;;;;;;12.50;10.17;;;23.30;20.40;;;;;;5017055;28;20470;-63
2023/08/20 01:54:30;;;;;;;11.13;8.93;;;23.20;20.70;;;;;;5018831;28;20459;-63
2023/08/20 01:56:57;;;;;;;12.67;9.80;;;23.20;20.80;;;;;;5023028;28;20474;-63
2023/08/20 01:59:25;;;;;;;11.87;9.50;;;23.20;21.20;;;;;;5022750;28;20860;-63
2023/08/20 02:01:52;;;;;;;11.70;9.53;;;23.20;21.20;;;;;;5018745;28;20557;-63
2023/08/20 02:04:20;;;;;;;13.67;10.33;;;23.10;21.40;;;;;;5023252;28;20467;-63
2023/08/20 02:06:47;;;;;;;13.37;9.10;;;23.10;21.30;;;;;;5020733;28;20474;-63
2023/08/20 02:09:13;;;;;;;17.23;10.40;;;23.00;21.80;;;;;;5020307;28;20490;-63
2023/08/20 02:11:40;;;;;;;12.50;9.90;;;23.00;22.30;;;;;;5020587;28;20547;-63
2023/08/20 02:14:07;;;;;;;12.33;10.20;;;23.00;22.30;;;;;;5024445;28;20462;-63
2023/08/20 02:16:33;;;;;;;13.67;10.43;;;22.90;23.20;;;;;;5024357;28;20483;-63
2023/08/20 02:19:01;;;;;;;14.30;11.03;;;22.80;23.70;;;;;;5020532;28;20487;-63
2023/08/20 02:21:30;;;;;;;14.27;11.57;;;22.80;24.00;;;;;;5021875;28;21053;-64
2023/08/20 02:23:56;;;;;;;16.00;11.20;;;22.80;24.30;;;;;;5022990;28;20499;-63
2023/08/20 02:26:23;;;;;;;12.30;11.03;;;22.80;24.60;;;;;;5018723;28;21190;-63
2023/08/20 02:28:50;;;;;;;12.33;10.70;;;22.70;24.60;;;;;;5023358;28;20521;-63
2023/08/20 02:31:17;;;;;;;13.83;10.60;;;22.70;24.80;;;;;;5024554;28;21085;-63
2023/08/20 02:33:44;;;;;;;14.67;11.70;;;22.70;24.90;;;;;;5021937;28;20465;-63
2023/08/20 02:36:11;;;;;;;14.37;11.00;;;22.70;25.00;;;;;;5028153;28;20472;-64
2023/08/20 02:38:39;;;;;;;12.43;11.13;;;22.70;25.00;;;;;;5027877;28;20544;-62
2023/08/20 02:41:05;;;;;;;15.00;11.97;;;22.60;25.40;;;;;;5028450;28;20478;-64
2023/08/20 02:43:32;;;;;;;17.70;12.57;;;22.60;25.50;;;;;;5022109;28;20462;-64
2023/08/20 02:45:59;;;;;;;13.43;11.30;;;22.60;25.90;;;;;;5028893;28;20465;-64
2023/08/20 02:48:26;;;;;;;12.77;11.47;;;22.60;26.30;;;;;;5026827;28;20486;-64
2023/08/20 02:50:54;;;;;;;15.27;11.60;;;22.60;26.70;;;;;;5028484;28;20470;-64
2023/08/20 02:53:20;;;;;;;14.07;12.60;;;22.50;26.80;;;;;;5028204;28;20498;-64
2023/08/20 02:55:49;;;;;;;14.10;12.60;;;22.50;27.10;;;;;;5046373;23;20520;-69
2023/08/20 02:58:16;;;;;;;16.43;12.57;;;22.50;27.30;;;;;;5047862;28;20497;-68
2023/08/20 03:00:43;;;;;;;14.60;12.13;;;22.40;27.40;;;;;;5048412;28;20470;-69
2023/08/20 03:03:10;;;;;;;16.30;12.53;;;22.40;27.70;;;;;;5043314;28;20466;-69
2023/08/20 03:05:37;;;;;;;13.27;11.87;;;22.30;27.70;;;;;;5046493;28;20458;-69
2023/08/20 03:08:04;;;;;;;15.03;12.57;;;22.20;28.00;;;;;;5045009;28;20490;-69
2023/08/20 03:10:32;;;;;;;16.47;13.60;;;22.20;28.00;;;;;;5046248;28;20485;-69
2023/08/20 03:13:00;;;;;;;14.10;12.00;;;22.10;28.30;;;;;;5045494;28;20893;-69
2023/08/20 03:15:27;;;;;;;15.63;12.77;;;22.10;28.50;;;;;;5046590;28;20481;-69
2023/08/20 03:17:54;;;;;;;15.40;12.93;;;22.10;28.40;;;;;;5043711;28;20478;-69
2023/08/20 03:20:20;;;;;;;13.57;12.27;;;22.10;28.50;;;;;;5049861;28;20462;-69
2023/08/20 03:22:47;;;;;;;13.17;11.80;;;22.10;28.50;;;;;;5048216;28;20477;-70
2023/08/20 03:25:14;;;;;;;15.70;13.47;;;22.10;28.80;;;;;;5046528;28;20964;-71
2023/08/20 03:27:41;;;;;;;18.73;14.30;;;22.10;28.90;;;;;;5048155;28;20486;-71
2023/08/20 03:30:10;;;;;;;18.60;14.47;;;22.10;28.90;;;;;;5045404;28;20458;-71
2023/08/20 03:32:36;;;;;;;19.13;13.37;;;22.00;29.40;;;;;;5046634;28;20473;-70
2023/08/20 03:35:03;;;;;;;18.33;13.97;;;22.00;29.40;;;;;;5046225;28;20486;-71
2023/08/20 03:37:30;;;;;;;16.03;13.83;;;22.00;29.60;;;;;;5047965;28;20851;-71
2023/08/20 03:39:57;;;;;;;17.80;15.90;;;22.00;29.90;;;;;;5047755;28;20470;-71
2023/08/20 03:42:24;;;;;;;16.37;14.67;;;22.00;30.00;;;;;;5044488;28;20462;-71
2023/08/20 03:44:50;;;;;;;16.83;14.93;;;22.00;29.90;;;;;;5046271;28;20466;-70
2023/08/20 03:47:20;;;;;;;19.80;16.07;;;22.00;29.80;;;;;;5044514;28;20462;-70
2023/08/20 03:49:47;;;;;;;16.17;14.23;;;21.90;30.10;;;;;;5048192;28;20469;-71
2023/08/20 03:52:14;;;;;;;14.83;13.27;;;21.90;30.20;;;;;;5041995;28;20498;-71
2023/08/20 03:54:41;;;;;;;15.80;14.10;;;21.90;30.50;;;;;;5047784;28;20473;-70
2023/08/20 03:57:07;;;;;;;15.70;13.97;;;21.90;30.50;;;;;;5043133;28;20478;-71
2023/08/20 03:59:34;;;;;;;16.03;14.30;;;21.90;31.00;;;;;;5043140;28;20466;-71
2023/08/20 04:02:01;;;;;;;15.67;13.80;;;21.90;30.90;;;;;;5045474;28;20466;-71
2023/08/20 04:04:29;;;;;;;14.67;13.07;;;21.90;30.80;;;;;;5047222;28;20463;-71
2023/08/20 04:06:55;;;;;;;15.10;12.87;;;21.90;30.70;;;;;;5046077;28;21151;-71
2023/08/20 04:09:22;;;;;;;14.03;12.53;;;22.00;30.70;;;;;;5047012;28;20489;-70
2023/08/20 04:11:49;;;;;;;17.47;14.80;;;22.00;30.70;;;;;;5041561;28;21008;-70
2023/08/20 04:14:16;;;;;;;17.63;13.10;;;22.00;30.80;;;;;;5044196;28;21041;-71
2023/08/20 04:16:43;;;;;;;15.13;13.53;;;21.90;31.20;;;;;;5044504;28;20809;-70
2023/08/20 04:19:09;;;;;;;14.63;13.03;;;21.90;31.20;;;;;;5048687;28;20489;-71
2023/08/20 04:21:37;;;;;;;15.03;13.10;;;22.00;31.00;;;;;;5047367;28;21134;-71
2023/08/20 04:24:05;;;;;;;14.53;13.00;;;22.00;30.90;;;;;;5047438;28;20462;-71
2023/08/20 04:26:32;;;;;;;15.43;13.23;;;22.00;30.80;;;;;;5044737;28;20488;-71
2023/08/20 04:28:58;;;;;;;16.40;13.43;;;22.00;31.00;;;;;;5043714;28;20493;-71
2023/08/20 04:31:25;;;;;;;14.33;12.50;;;22.00;31.00;;;;;;5051827;28;20836;-70
2023/08/20 04:33:53;;;;;;;15.87;12.90;;;22.00;30.80;;;;;;5044319;28;20472;-70
2023/08/20 04:36:20;;;;;;;14.00;12.03;;;22.00;30.80;;;;;;5045856;28;20486;-71
2023/08/20 04:38:48;;;;;;;13.93;12.53;;;22.00;30.70;;;;;;5047780;28;20497;-71
2023/08/20 04:41:14;;;;;;;15.93;12.80;;;22.00;30.60;;;;;;5045847;28;20816;-71
2023/08/20 04:43:41;;;;;;;14.87;13.37;;;22.00;30.30;;;;;;5049450;28;20473;-72
2023/08/20 04:46:08;;;;;;;14.73;13.03;;;22.00;30.30;;;;;;5044141;28;20458;-71
2023/08/20 04:48:35;;;;;;;16.27;12.37;;;22.00;30.40;;;;;;5047515;28;20484;-71
2023/08/20 04:51:01;;;;;;;14.03;12.53;;;22.10;30.40;;;;;;5042133;28;21001;-71
2023/08/20 04:53:28;;;;;;;14.07;11.60;;;22.10;30.30;;;;;;5046304;28;20473;-70
2023/08/20 04:55:58;;;;;;;16.93;11.90;;;22.10;30.30;;;;;;5044132;28;20492;-71
2023/08/20 04:58:25;;;;;;;16.93;13.40;;;22.10;30.00;;;;;;5043236;28;20494;-71
2023/08/20 05:00:52;;;;;;;15.30;13.50;;;22.20;30.00;;;;;;5042277;28;20479;-71
2023/08/20 05:03:18;;;;;;;15.80;12.73;;;22.20;30.10;;;;;;5047852;28;20469;-71
2023/08/20 05:05:50;;;;;;;13.87;11.90;;;22.20;30.20;;;;;;5046986;28;20474;-70
2023/08/20 05:08:16;;;;;;;13.00;11.70;;;22.30;30.20;;;;;;5042411;28;20485;-71
2023/08/20 05:10:43;;;;;;;13.80;11.63;;;22.30;30.10;;;;;;5042935;28;20510;-71
2023/08/20 05:13:11;;;;;;;13.53;12.13;;;22.50;29.80;;;;;;5041699;28;20838;-70
2023/08/20 05:15:38;;;;;;;13.17;11.63;;;22.60;29.70;;;;;;5046862;28;20488;-71
2023/08/20 05:18:05;;;;;;;15.17;13.00;;;22.80;29.50;;;;;;5047132;28;20488;-71
2023/08/20 05:20:32;;;;;;;14.80;11.37;;;23.10;28.80;;;;;;5046969;28;20474;-71
2023/08/20 05:22:58;;;;;;;13.00;11.20;;;23.40;27.90;;;;;;5045004;28;20462;-70
2023/08/20 05:25:25;;;;;;;12.30;10.63;;;23.80;26.70;;;;;;5045970;28;20466;-72
2023/08/20 05:27:52;;;;;;;13.80;12.33;;;24.10;25.60;;;;;;5044060;28;20495;-70
2023/08/20 05:30:20;;;;;;;14.77;12.37;;;24.40;24.70;;;;;;5042164;28;20466;-70
2023/08/20 05:32:47;;;;;;;12.90;11.40;;;24.90;23.60;;;;;;5046190;28;20466;-72
2023/08/20 05:35:13;;;;;;;14.20;11.47;;;25.50;21.60;;;;;;5046875;28;20463;-71
2023/08/20 05:37:40;;;;;;;14.20;10.80;;;26.20;19.70;;;;;;5047333;28;20498;-72
2023/08/20 05:40:08;;;;;;;13.47;11.30;;;27.10;17.60;;;;;;5045880;28;20458;-71
2023/08/20 05:42:35;;;;;;;13.57;10.87;;;27.90;14.80;;;;;;5041421;28;21291;-73
2023/08/20 05:45:02;;;;;;;11.57;10.37;;;28.80;12.70;;;;;;5042185;28;20469;-72
2023/08/20 05:47:30;;;;;;;13.37;10.87;;;29.60;10.70;;;;;;5045404;28;20496;-71
2023/08/20 05:49:56;;;;;;;11.50;10.30;;;30.50;8.80;;;;;;5042420;28;20463;-72
2023/08/20 05:52:23;;;;;;;14.33;10.20;;;31.40;7.00;;;;;;5044533;28;20466;-71
2023/08/20 05:54:50;;;;;;;12.40;10.50;;;32.30;5.10;;;;;;5047867;28;20470;-72
2023/08/20 05:57:17;;;;;;;15.17;11.77;;;33.10;3.20;;;;;;5043155;28;20520;-72
2023/08/20 05:59:43;;;;;;;11.30;10.20;;;34.00;1.20;;;;;;5042475;28;20950;-72
2023/08/20 06:02:10;;;;;;;10.60;9.50;;;34.90;1.00;;;;;;5043873;28;20478;-72
2023/08/20 06:04:38;;;;;;;11.63;9.90;;;35.80;1.00;;;;;;5046874;28;20462;-72
2023/08/20 06:07:05;;;;;;;12.20;11.00;;;36.50;1.00;;;;;;5042119;28;20470;-72
2023/08/20 06:09:32;;;;;;;9.90;8.90;;;37.20;1.00;;;;;;5045955;28;20481;-72
2023/08/20 06:11:58;;;;;;;10.50;8.90;;;38.10;1.00;;;;;;5047921;28;20489;-73
2023/08/20 06:14:25;;;;;;;10.90;9.80;;;38.90;1.00;;;;;;5046779;28;20461;-72
2023/08/20 06:16:52;;;;;;;15.20;10.57;;;39.60;1.00;;;;;;5050145;28;20479;-72
2023/08/20 06:19:18;;;;;;;13.57;8.80;;;40.30;1.00;;;;;;5048287;28;20477;-72
2023/08/20 06:21:46;;;;;;;10.13;9.00;;;41.00;1.00;;;;;;5053014;28;20472;-73
2023/08/20 06:24:13;;;;;;;11.13;9.60;;;41.60;1.00;;;;;;5050031;28;20467;-72
2023/08/20 06:26:40;;;;;;;14.87;9.50;;;42.30;1.00;;;;;;5047992;28;20461;-73
2023/08/20 06:29:06;;;;;;;10.03;9.13;;;42.80;1.00;;;;;;5046095;28;20489;-70
2023/08/20 06:31:33;;;;;;;11.80;10.07;;;43.30;1.00;;;;;;5043346;28;20478;-69
2023/08/20 06:34:00;;;;;;;10.87;9.80;;;43.70;1.00;;;;;;5041739;28;20803;-69
2023/08/20 06:36:27;;;;;;;9.60;8.70;;;44.10;1.00;;;;;;5043996;28;20466;-69
2023/08/20 06:38:55;;;;;;;10.57;9.50;;;44.80;1.00;;;;;;5047801;28;20489;-69
2023/08/20 06:41:21;;;;;;;12.77;9.70;;;45.30;1.00;;;;;;5045950;28;20478;-70
2023/08/20 06:43:48;;;;;;;9.17;8.20;;;45.80;1.00;;;;;;5043364;28;20458;-69
2023/08/20 06:46:15;;;;;;;10.00;9.03;;;46.20;1.00;;;;;;5042063;28;20458;-69
2023/08/20 06:48:42;;;;;;;11.93;9.10;;;46.90;1.00;;;;;;5046493;28;20494;-69
2023/08/20 06:51:12;;;;;;;8.40;7.60;;;47.40;1.00;;;;;;5045002;28;20917;-69
2023/08/20 06:53:40;;;;;;;9.93;8.90;;;47.80;1.00;;;;;;5047677;28;20497;-69
2023/08/20 06:56:08;;;;;;;9.80;7.30;;;48.30;1.00;;;;;;5043116;28;20462;-69
2023/08/20 06:58:35;;;;;;;8.40;7.60;;;48.60;1.00;;;;;;5044159;28;21281;-69
2023/08/20 07:01:07;;;;;;;11.30;8.50;;;49.10;1.00;;;;;;5041119;28;20477;-68
2023/08/20 07:03:34;;;;;;;9.20;7.47;;;49.60;1.00;;;;;;5042451;28;20543;-69
2023/08/20 07:06:01;;;;;;;9.90;8.17;;;50.00;1.00;;;;;;5035448;28;20484;-69
2023/08/20 07:08:28;;;;;;;8.93;8.13;;;50.40;1.00;;;;;;5045631;28;20492;-69
2023/08/20 07:10:55;;;;;;;9.60;8.70;;;50.60;1.00;;;;;;5046549;28;20832;-68
2023/08/20 07:13:23;;;;;;;9.90;8.90;;;50.70;1.00;;;;;;5043194;28;20468;-69
2023/08/20 07:15:50;;;;;;;9.90;8.13;;;50.60;1.00;;;;;;5042178;28;20458;-69
2023/08/20 07:18:16;;;;;;;9.07;8.27;;;50.60;1.00;;;;;;5048562;28;20532;-69
2023/08/20 07:20:44;;;;;;;9.07;8.27;;;50.70;1.00;;;;;;5046132;28;20470;-69
2023/08/20 07:23:11;;;;;;;9.03;8.13;;;50.80;1.00;;;;;;5047631;28;20461;-69
2023/08/20 07:25:44;;;;;;;8.07;7.20;;;51.00;1.00;;;;;;5040238;28;20462;-70
2023/08/20 07:28:11;;;;;;;8.80;8.00;;;51.00;1.00;;;;;;5047794;28;20568;-70
2023/08/20 07:30:39;;;;;;;8.23;7.40;;;51.60;1.00;;;;;;5040688;28;20602;-71
2023/08/20 07:33:07;;;;;;;10.20;7.60;;;51.90;1.00;;;;;;5042017;28;20472;-70
2023/08/20 07:35:35;;;;;;;9.70;7.10;;;52.40;1.00;;;;;;5040625;28;20473;-70
2023/08/20 07:38:02;;;;;;;7.50;6.27;;;52.90;1.00;;;;;;5047560;28;20567;-70
2023/08/20 07:40:28;;;;;;;8.80;6.67;;;53.50;1.00;;;;;;5041990;28;20476;-70
2023/08/20 07:42:56;;;;;;;8.20;6.40;;;53.80;1.00;;;;;;5045526;28;20461;-70
2023/08/20 07:45:22;;;;;;;8.17;6.43;;;54.40;1.00;;;;;;5043980;28;21291;-70
2023/08/20 07:47:50;;;;;;;11.33;7.13;;;54.80;1.00;;;;;;5041395;28;20486;-70
2023/08/20 07:50:17;;;;;;;9.40;6.37;;;55.30;1.00;;;;;;5042022;28;20207;-70
2023/08/20 07:52:44;;;;;;;7.30;5.70;;;55.60;1.00;;;;;;5045972;28;20199;-70
2023/08/20 07:55:10;;;;;;;7.00;6.30;;;55.80;1.00;;;;;;5045208;28;20215;-70
2023/08/20 07:57:37;;;;;;;7.20;6.50;;;56.10;1.00;;;;;;5040607;28;20215;-70
2023/08/20 08:00:05;;;;;;;9.45;6.40;;;56.30;1.00;;;;;;5047625;28;20217;-70
2023/08/20 08:02:31;;;;;;;7.68;6.15;;;56.60;1.00;;;;;;5042770;28;20234;-70
2023/08/20 08:04:59;;;;;;;9.32;6.35;;;56.80;1.00;;;;;;5047869;28;20203;-70
2023/08/20 08:07:26;;;;;;;8.45;6.80;;;57.20;1.00;;;;;;5041374;28;20192;-70
2023/08/20 08:09:53;;;;;;;7.30;6.18;;;57.50;1.00;;;;;;5046539;28;20215;-70
2023/08/20 08:12:20;;;;;;;7.10;6.32;;;57.50;1.00;;;;;;5047232;28;20195;-70
2023/08/20 08:14:47;;;;;;;9.90;7.00;;;57.80;1.00;;;;;;5043896;28;20258;-70
2023/08/20 08:17:13;;;;;;;6.75;5.90;;;58.10;1.00;;;;;;5043726;28;20743;-70
2023/08/20 08:19:40;;;;;;;11.27;6.18;;;58.10;1.00;;;;;;5042504;28;20199;-70
2023/08/20 08:22:08;;;;;;;9.23;6.15;;;58.10;1.00;;;;;;5046803;28;20204;-70
2023/08/20 08:24:35;;;;;;;8.45;6.03;;;58.10;1.00;;;;;;5042959;28;20651;-70
2023/08/20 08:27:01;;;;;;;8.43;6.28;;;58.30;1.00;;;;;;5042892;28;20196;-70
2023/08/20 08:29:28;;;;;;;7.22;6.53;;;58.10;1.00;;;;;;5040401;28;20231;-70
2023/08/20 08:31:55;;;;;;;7.90;5.13;;;57.80;1.00;;;;;;5042510;28;20219;-70
2023/08/20 08:34:21;;;;;;;6.72;5.43;;;58.00;1.00;;;;;;5040602;28;20599;-70
2023/08/20 08:36:48;;;;;;;9.88;5.47;;;58.40;1.00;;;;;;5042549;28;20220;-72
2023/08/20 08:39:16;;;;;;;9.32;6.00;;;58.80;1.00;;;;;;5042123;28;20230;-70
2023/08/20 08:41:43;;;;;;;7.13;5.72;;;58.70;1.00;;;;;;5047136;28;20592;-70
2023/08/20 08:44:10;;;;;;;9.02;5.57;;;59.10;1.00;;;;;;5043732;28;20191;-70
2023/08/20 08:46:40;;;;;;;8.07;5.53;;;58.90;1.00;;;;;;5042177;28;20214;-70
2023/08/20 08:49:08;;;;;;;8.73;6.03;;;58.90;1.00;;;;;;5042282;28;20245;-71
2023/08/20 08:51:37;;;;;;;9.32;5.05;;;59.00;1.00;;;;;;5045916;28;20203;-70
2023/08/20 08:54:04;;;;;;;8.13;5.70;;;59.40;1.00;;;;;;5043532;28;20202;-70
2023/08/20 08:56:32;;;;;;;6.95;5.57;;;59.40;1.00;;;;;;5044612;28;20843;-69
2023/08/20 08:58:59;;;;;;;7.93;5.88;;;59.80;1.00;;;;;;5041441;28;20246;-70
2023/08/20 09:01:26;;;;;;;5.63;5.10;;;59.40;1.00;;;;;;5043903;28;20251;-70
2023/08/20 09:03:53;;;;;;;7.25;5.65;;;59.00;1.00;;;;;;5046450;28;20203;-69
2023/08/20 09:06:20;;;;;;;7.60;5.72;;;58.80;1.00;;;;;;5040836;28;20199;-70
2023/08/20 09:08:46;;;;;;;5.82;5.22;;;58.80;1.00;;;;;;5041855;28;20691;-70
2023/08/20 09:11:13;;;;;;;6.05;5.45;;;58.80;1.00;;;;;;5042862;28;20203;-69
2023/08/20 09:13:44;;;;;;;7.60;5.28;;;58.50;1.00;;;;;;5038891;28;20200;-70
2023/08/20 09:16:12;;;;;;;8.32;5.97;;;58.40;1.00;;;;;;5041709;28;20227;-70
2023/08/20 09:18:40;;;;;;;5.75;5.25;;;58.40;1.00;;;;;;5035699;28;20231;-70
2023/08/20 09:21:09;;;;;;;8.68;5.65;;;58.70;1.00;;;;;;5039646;28;20219;-70
2023/08/20 09:23:35;;;;;;;6.20;5.30;;;58.90;1.00;;;;;;5040538;28;20719;-70
2023/08/20 09:26:03;;;;;;;6.10;5.50;;;58.80;1.00;;;;;;5036918;28;20203;-69
2023/08/20 09:28:40;;;;;;;6.72;5.70;;;58.80;1.00;;;;;;5039976;28;20219;-70
2023/08/20 09:31:09;;;;;;;8.13;5.43;;;58.80;1.00;;;;;;5041382;28;20227;-70
2023/08/20 09:33:35;;;;;;;8.10;5.40;;;58.40;1.00;;;;;;5043190;28;20679;-70
2023/08/20 09:36:04;;;;;;;8.30;5.82;;;58.00;1.00;;;;;;5045230;28;20209;-69
2023/08/20 09:38:30;;;;;;;6.30;5.70;;;58.30;1.00;;;;;;5041010;28;20263;-70
2023/08/20 09:40:58;;;;;;;7.07;5.82;;;57.70;1.00;;;;;;5040298;28;20688;-69
2023/08/20 09:43:28;;;;;;;6.18;5.57;;;57.00;1.00;;;;;;5039361;28;20226;-70
2023/08/20 09:45:56;;;;;;;5.95;5.32;;;57.40;1.00;;;;;;5037168;28;20288;-69
2023/08/20 09:48:28;;;;;;;5.93;4.90;;;57.70;1.00;;;;;;5041569;28;20222;-69
2023/08/20 09:51:00;;;;;;;6.05;4.97;;;58.00;1.00;;;;;;5041627;28;20205;-69
2023/08/20 09:53:34;;;;;;;6.05;4.95;;;58.60;1.00;;;;;;5040704;28;20544;-69
2023/08/20 09:56:10;;;;;;;6.40;5.15;;;58.80;1.00;;;;;;5026731;28;20218;-71
2023/08/20 09:58:37;;;;;;;7.85;5.50;;;59.30;1.00;;;;;;5041440;28;20238;-70
2023/08/20 10:01:05;;;;;;;7.80;5.47;;;59.50;1.00;;;;;;5037501;28;20940;-71
2023/08/20 10:03:33;;;;;;;6.05;4.93;;;59.20;1.00;;;;;;5044067;28;20195;-70
2023/08/20 10:06:02;;;;;;;5.57;4.97;;;59.50;1.00;;;;;;5044616;28;20588;-70
2023/08/20 10:08:28;;;;;;;8.82;5.88;;;59.80;1.00;;;;;;5039754;28;20707;-71
2023/08/20 10:10:55;;;;;;;8.13;5.47;;;59.90;1.00;;;;;;5041873;28;20204;-71
2023/08/20 10:13:22;;;;;;;10.70;5.03;;;60.00;1.00;;;;;;5041630;28;20218;-71
2023/08/20 10:15:50;;;;;;;6.13;4.68;;;60.40;1.00;;;;;;5038961;28;20814;-71
2023/08/20 10:18:20;;;;;;;7.07;4.80;;;60.60;1.00;;;;;;5047724;28;20219;-71
2023/08/20 10:20:50;;;;;;;7.15;5.20;;;60.50;1.00;;;;;;5042063;28;20210;-71
2023/08/20 10:23:21;;;;;;;6.97;5.22;;;60.70;1.00;;;;;;5040216;28;20199;-71
2023/08/20 10:25:48;;;;;;;6.82;4.60;;;60.60;1.00;;;;;;5038888;28;20203;-70
2023/08/20 10:28:20;;;;;;;9.10;5.50;;;60.60;1.00;;;;;;5041440;28;20215;-71
2023/08/20 10:31:12;;;;;;;7.45;5.28;;;60.60;1.00;;;;;;5037460;28;20226;-70
2023/08/20 10:33:40;;;;;;;6.57;4.50;;;60.60;1.00;;;;;;5030116;28;20221;-70
2023/08/20 10:36:17;;;;;;;6.93;5.22;;;60.30;1.00;;;;;;5048329;28;20207;-70
2023/08/20 10:38:46;;;;;;;8.20;5.30;;;60.10;1.00;;;;;;5040373;28;20230;-70
2023/08/20 10:41:12;;;;;;;5.55;4.63;;;59.50;1.00;;;;;;5040891;28;20207;-71
2023/08/20 10:43:41;;;;;;;6.78;4.78;;;57.70;1.00;;;;;;5037865;28;20239;-71
2023/08/20 10:46:14;;;;;;;11.77;4.63;;;55.80;1.00;;;;;;5038647;28;20218;-71
2023/08/20 10:48:41;;;;;;;6.93;4.40;;;53.90;1.00;;;;;;5042134;28;20220;-72
2023/08/20 10:51:14;;;;;;;7.07;4.53;;;51.90;1.00;;;;;;5039638;28;20210;-70
2023/08/20 10:53:42;;;;;;;9.83;5.20;;;50.10;1.00;;;;;;5038289;28;20688;-70
2023/08/20 10:56:14;;;;;;;5.23;4.70;;;48.70;1.00;;;;;;5042720;28;20473;-71
2023/08/20 10:58:46;;;;;;;11.13;5.80;;;47.60;1.00;;;;;;5043662;28;20559;-71
2023/08/20 11:01:23;;;;;;;7.07;4.97;;;46.60;1.00;;;;;;5043094;28;20478;-70
2023/08/20 11:03:51;;;;;;;8.30;5.10;;;45.30;1.00;;;;;;5050127;28;20457;-70
2023/08/20 11:06:19;;;;;;;10.57;5.63;;;44.20;1.00;;;;;;5046324;28;20969;-71
2023/08/20 11:08:46;;;;;;;6.97;5.20;;;43.50;1.00;;;;;;5049891;28;20478;-71
2023/08/20 11:11:13;;;;;;;7.97;5.70;;;43.00;1.00;;;;;;5051255;28;20454;-71
2023/08/20 11:13:42;;;;;;;12.03;5.83;;;42.30;1.00;;;;;;5045764;28;20537;-71
2023/08/20 11:16:09;;;;;;;8.13;5.53;;;41.80;1.00;;;;;;5048237;28;20470;-71
2023/08/20 11:18:37;;;;;;;8.50;5.80;;;41.40;1.00;;;;;;5046722;28;20482;-71
2023/08/20 11:21:03;;;;;;;9.40;5.97;;;40.80;1.00;;;;;;5046139;28;20505;-71
2023/08/20 11:23:32;;;;;;;7.93;5.90;;;40.10;1.00;;;;;;5046701;28;20462;-71
2023/08/20 11:25:59;;;;;;;6.67;5.53;;;39.50;1.00;;;;;;5048910;28;20466;-70
2023/08/20 11:28:27;;;;;;;8.30;6.10;;;39.20;1.00;;;;;;5049582;28;20484;-70
2023/08/20 11:30:55;;;;;;;7.17;5.67;;;38.90;1.00;;;;;;5044606;28;20474;-71
2023/08/20 11:33:23;;;;;;;7.57;5.90;;;38.60;1.00;;;;;;5046699;28;20462;-71
2023/08/20 11:35:50;;;;;;;14.20;6.20;;;38.30;1.00;;;;;;5039744;28;20494;-71
2023/08/20 11:38:17;;;;;;;10.17;6.90;;;38.00;1.00;;;;;;5047433;28;21008;-70
2023/08/20 11:40:45;;;;;;;9.23;6.93;;;37.80;1.00;;;;;;5041929;28;20470;-71
2023/08/20 11:43:12;;;;;;;10.40;7.03;;;37.50;1.00;;;;;;5047250;28;20465;-71
2023/08/20 11:45:47;;;;;;;11.97;6.97;;;37.40;1.00;;;;;;5047053;28;20516;-71
2023/08/20 11:48:14;;;;;;;9.00;5.73;;;37.10;1.00;;;;;;5046474;28;20489;-70
2023/08/20 11:50:41;;;;;;;9.20;6.60;;;37.00;1.00;;;;;;5047290;28;20547;-70
2023/08/20 11:53:08;;;;;;;7.63;6.57;;;36.90;1.00;;;;;;5047578;28;20500;-70
2023/08/20 11:55:35;;;;;;;8.60;6.00;;;36.80;1.00;;;;;;5045423;28;20465;-71
2023/08/20 11:58:03;;;;;;;9.03;6.20;;;36.60;1.00;;;;;;5042845;28;20505;-70
2023/08/20 12:00:32;;;;;;;8.80;6.90;;;36.40;1.00;;;;;;5037815;28;20807;-68
2023/08/20 12:02:59;;;;;;;11.17;7.40;;;36.20;1.00;;;;;;5045370;28;20512;-69
2023/08/20 12:05:27;;;;;;;6.60;5.70;;;36.10;1.00;;;;;;5045840;28;20470;-69
2023/08/20 12:07:58;;;;;;;7.73;6.00;;;35.90;1.00;;;;;;5048875;28;20474;-69
2023/08/20 12:10:26;;;;;;;9.10;6.70;;;35.80;1.00;;;;;;5044880;28;21078;-69
2023/08/20 12:12:54;;;;;;;11.47;6.47;;;35.60;1.00;;;;;;5047174;28;20544;-70
2023/08/20 12:15:23;;;;;;;8.30;5.73;;;35.60;1.00;;;;;;5047777;28;20465;-71
2023/08/20 12:18:01;;;;;;;8.40;6.00;;;35.50;1.00;;;;;;5044270;28;20488;-71
2023/08/20 12:20:29;;;;;;;8.10;5.90;;;35.30;1.00;;;;;;5038381;28;20841;-71
2023/08/20 12:23:00;;;;;;;7.83;6.03;;;35.30;1.00;;;;;;5048380;28;20874;-71
2023/08/20 12:25:27;;;;;;;10.80;6.57;;;35.20;1.00;;;;;;5047264;28;20489;-72
2023/08/20 12:27:54;;;;;;;10.47;5.37;;;35.20;1.00;;;;;;5047414;28;20481;-71
2023/08/20 12:30:22;;;;;;;11.83;6.13;;;35.10;1.00;;;;;;5046883;28;20463;-72
2023/08/20 12:32:48;;;;;;;6.03;5.33;;;35.00;1.00;;;;;;5050672;28;20458;-72
2023/08/20 12:35:15;;;;;;;9.53;6.03;;;35.00;1.00;;;;;;5047886;28;20934;-71
2023/08/20 12:37:42;;;;;;;9.63;5.97;;;35.00;1.00;;;;;;5048425;28;20474;-71
2023/08/20 12:40:12;;;;;;;9.57;6.63;;;34.90;1.00;;;;;;5048569;28;20810;-72
2023/08/20 12:42:39;;;;;;;15.90;5.93;;;34.90;1.00;;;;;;5048505;28;20542;-72
2023/08/20 12:45:07;;;;;;;9.23;4.93;;;34.90;1.00;;;;;;5042065;28;20508;-73